sensor_id;sensor_type;location;lat;lon;timestamp;pressure;altitude;pressure_sealevel;temperature;humidity
80627;BME280;69982;51.758;5.784;2024-03-02T00:48:14;99847.52;;;8.54;66.47
80627;BME280;69982;51.758;5.784;2024-03-02T01:11:49;99936.20;;;8.78;68.12
80627;BME280;69982;51.758;5.784;2024-03-02T01:20:41;99939.75;;;8.80;68.71
80627;BME280;69982;51.758;5.784;2024-03-02T01:23:45;99944.03;;;8.82;68.82
80627;BME280;69982;51.758;5.784;2024-03-02T01:26:13;99944.70;;;8.84;68.89
80627;BME280;69982;51.758;5.784;2024-03-02T01:28:55;99949.60;;;8.83;68.87
80627;BME280;69982;51.758;5.784;2024-03-02T01:31:44;99947.05;;;8.80;69.14
80627;BME280;69982;51.758;5.784;2024-03-02T01:34:32;99935.80;;;8.78;69.20
80627;BME280;69982;51.758;5.784;2024-03-02T01:37:00;99931.17;;;8.74;69.26
80627;BME280;69982;51.758;5.784;2024-03-02T01:39:28;99924.42;;;8.70;69.46
80627;BME280;69982;51.758;5.784;2024-03-02T01:42:23;99936.20;;;8.70;69.44
80627;BME280;69982;51.758;5.784;2024-03-02T03:31:11;99943.70;;;8.15;71.39
80627;BME280;69982;51.758;5.784;2024-03-02T03:33:43;99945.52;;;8.16;71.51
80627;BME280;69982;51.758;5.784;2024-03-02T03:36:11;99940.34;;;8.17;71.41
80627;BME280;69982;51.758;5.784;2024-03-02T03:38:49;99949.60;;;8.17;71.51
80627;BME280;69982;51.758;5.784;2024-03-02T03:41:16;99945.21;;;8.16;71.41
80627;BME280;69982;51.758;5.784;2024-03-02T03:43:46;99950.76;;;8.15;71.47
80627;BME280;69982;51.758;5.784;2024-03-02T03:46:15;99948.25;;;8.13;71.54
80627;BME280;69982;51.758;5.784;2024-03-02T03:48:43;99944.38;;;8.10;71.44
80627;BME280;69982;51.758;5.784;2024-03-02T03:51:20;99941.23;;;8.11;71.40
80627;BME280;69982;51.758;5.784;2024-03-02T03:53:53;99949.06;;;8.14;71.45
80627;BME280;69982;51.758;5.784;2024-03-02T03:56:27;99947.17;;;8.16;71.63
80627;BME280;69982;51.758;5.784;2024-03-02T03:59:06;99962.20;;;8.17;71.51
80627;BME280;69982;51.758;5.784;2024-03-02T04:01:38;99972.89;;;8.17;71.40
80627;BME280;69982;51.758;5.784;2024-03-02T04:10:03;99962.42;;;8.09;71.47
80627;BME280;69982;51.758;5.784;2024-03-02T04:12:56;99943.84;;;8.06;71.57
80627;BME280;69982;51.758;5.784;2024-03-02T04:16:09;99955.58;;;8.04;71.75
80627;BME280;69982;51.758;5.784;2024-03-02T04:18:49;99949.92;;;8.06;71.65
80627;BME280;69982;51.758;5.784;2024-03-02T04:21:23;99954.61;;;8.09;71.59
80627;BME280;69982;51.758;5.784;2024-03-02T04:24:07;99949.91;;;8.12;71.43
80627;BME280;69982;51.758;5.784;2024-03-02T04:46:23;99967.14;;;7.94;71.39
80627;BME280;69982;51.758;5.784;2024-03-02T05:19:21;99993.37;;;7.77;70.87
80627;BME280;69982;51.758;5.784;2024-03-02T05:22:06;99990.35;;;7.76;70.86
80627;BME280;69982;51.758;5.784;2024-03-02T05:47:29;100005.42;;;7.73;71.08
80627;BME280;69982;51.758;5.784;2024-03-02T05:50:03;100012.61;;;7.72;71.03
80627;BME280;69982;51.758;5.784;2024-03-02T05:52:30;100020.31;;;7.71;70.97
80627;BME280;69982;51.758;5.784;2024-03-02T05:54:57;100019.91;;;7.69;70.85
80627;BME280;69982;51.758;5.784;2024-03-02T05:57:24;100017.27;;;7.66;70.75
80627;BME280;69982;51.758;5.784;2024-03-02T06:00:33;100016.15;;;7.60;70.85
80627;BME280;69982;51.758;5.784;2024-03-02T06:03:00;100016.95;;;7.54;70.94
80627;BME280;69982;51.758;5.784;2024-03-02T06:05:28;100018.41;;;7.54;70.86
80627;BME280;69982;51.758;5.784;2024-03-02T06:07:56;100022.45;;;7.56;70.98
80627;BME280;69982;51.758;5.784;2024-03-02T06:10:24;100023.59;;;7.59;70.82
80627;BME280;69982;51.758;5.784;2024-03-02T06:12:54;100026.35;;;7.62;70.92
80627;BME280;69982;51.758;5.784;2024-03-02T06:15:21;100030.84;;;7.65;70.88
80627;BME280;69982;51.758;5.784;2024-03-02T06:17:48;100034.73;;;7.69;71.33
80627;BME280;69982;51.758;5.784;2024-03-02T06:20:16;100033.65;;;7.66;70.85
80627;BME280;69982;51.758;5.784;2024-03-02T06:22:42;100030.77;;;7.62;70.79
80627;BME280;69982;51.758;5.784;2024-03-02T06:25:09;100033.80;;;7.56;70.82
80627;BME280;69982;51.758;5.784;2024-03-02T06:27:36;100035.61;;;7.50;71.00
80627;BME280;69982;51.758;5.784;2024-03-02T06:30:03;100038.58;;;7.46;71.07
80627;BME280;69982;51.758;5.784;2024-03-02T06:32:30;100038.23;;;7.44;71.14
80627;BME280;69982;51.758;5.784;2024-03-02T06:34:57;100042.19;;;7.44;71.11
80627;BME280;69982;51.758;5.784;2024-03-02T06:37:24;100041.59;;;7.46;71.20
80627;BME280;69982;51.758;5.784;2024-03-02T06:39:54;100045.73;;;7.48;71.18
80627;BME280;69982;51.758;5.784;2024-03-02T06:42:22;100050.91;;;7.48;71.09
80627;BME280;69982;51.758;5.784;2024-03-02T06:44:48;100050.04;;;7.48;71.36
80627;BME280;69982;51.758;5.784;2024-03-02T06:47:15;100056.40;;;7.45;71.41
80627;BME280;69982;51.758;5.784;2024-03-02T07:46:08;100093.80;;;8.38;71.64
80627;BME280;69982;51.758;5.784;2024-03-02T07:48:40;100090.05;;;8.56;71.35
80627;BME280;69982;51.758;5.784;2024-03-02T07:51:31;100093.65;;;8.72;70.61
80627;BME280;69982;51.758;5.784;2024-03-02T07:54:03;100092.53;;;8.85;70.56
80627;BME280;69982;51.758;5.784;2024-03-02T07:57:12;100093.29;;;9.03;70.12
80627;BME280;69982;51.758;5.784;2024-03-02T08:00:31;100091.17;;;9.18;69.61
80627;BME280;69982;51.758;5.784;2024-03-02T08:03:13;100091.55;;;9.25;68.95
80627;BME280;69982;51.758;5.784;2024-03-02T08:06:04;100093.02;;;9.31;68.86
80627;BME280;69982;51.758;5.784;2024-03-02T08:09:34;100090.80;;;9.36;68.09
80627;BME280;69982;51.758;5.784;2024-03-02T08:12:10;100091.15;;;9.39;68.01
80627;BME280;69982;51.758;5.784;2024-03-02T08:14:38;100098.33;;;9.40;67.40
80627;BME280;69982;51.758;5.784;2024-03-02T08:17:05;100100.84;;;9.38;67.50
80627;BME280;69982;51.758;5.784;2024-03-02T08:19:36;100101.32;;;9.37;66.88
80627;BME280;69982;51.758;5.784;2024-03-02T08:22:07;100101.42;;;9.35;66.56
80627;BME280;69982;51.758;5.784;2024-03-02T08:24:35;100110.05;;;9.32;66.56
80627;BME280;69982;51.758;5.784;2024-03-02T08:27:03;100108.02;;;9.30;66.12
80627;BME280;69982;51.758;5.784;2024-03-02T08:29:32;100110.50;;;9.28;65.95
80627;BME280;69982;51.758;5.784;2024-03-02T08:31:58;100109.92;;;9.27;66.15
80627;BME280;69982;51.758;5.784;2024-03-02T08:34:29;100111.48;;;9.26;65.68
80627;BME280;69982;51.758;5.784;2024-03-02T09:04:38;100113.95;;;9.53;65.25
80627;BME280;69982;51.758;5.784;2024-03-02T09:07:39;100117.11;;;9.63;64.76
80627;BME280;69982;51.758;5.784;2024-03-02T09:10:29;100114.70;;;9.68;64.52
80627;BME280;69982;51.758;5.784;2024-03-02T09:13:00;100116.22;;;9.70;64.20
80627;BME280;69982;51.758;5.784;2024-03-02T09:15:27;100121.27;;;9.71;64.01
80627;BME280;69982;51.758;5.784;2024-03-02T09:17:54;100121.04;;;9.70;63.84
80627;BME280;69982;51.758;5.784;2024-03-02T09:20:21;100123.87;;;9.71;64.22
80627;BME280;69982;51.758;5.784;2024-03-02T09:22:48;100122.63;;;9.77;63.93
80627;BME280;69982;51.758;5.784;2024-03-02T09:25:15;100126.84;;;9.81;64.33
80627;BME280;69982;51.758;5.784;2024-03-02T09:27:45;100129.04;;;9.88;64.20
80627;BME280;69982;51.758;5.784;2024-03-02T09:30:15;100132.98;;;9.96;63.13
80627;BME280;69982;51.758;5.784;2024-03-02T09:32:43;100125.35;;;10.02;62.84
80627;BME280;69982;51.758;5.784;2024-03-02T09:35:12;100136.36;;;10.09;62.27
80627;BME280;69982;51.758;5.784;2024-03-02T09:37:43;100134.66;;;10.14;62.37
80627;BME280;69982;51.758;5.784;2024-03-02T09:40:10;100123.34;;;10.21;62.45
80627;BME280;69982;51.758;5.784;2024-03-02T09:42:38;100123.60;;;10.31;62.50
80627;BME280;69982;51.758;5.784;2024-03-02T09:45:06;100113.22;;;10.39;62.05
80627;BME280;69982;51.758;5.784;2024-03-02T09:47:36;100118.64;;;10.50;61.57
80627;BME280;69982;51.758;5.784;2024-03-02T09:50:04;100106.18;;;10.62;61.99
80627;BME280;69982;51.758;5.784;2024-03-02T09:52:31;100111.69;;;10.74;61.00
80627;BME280;69982;51.758;5.784;2024-03-02T09:55:04;100118.54;;;10.85;60.26
80627;BME280;69982;51.758;5.784;2024-03-02T09:57:39;100120.25;;;10.93;59.54
80627;BME280;69982;51.758;5.784;2024-03-02T10:00:12;100106.95;;;10.98;58.98
80627;BME280;69982;51.758;5.784;2024-03-02T10:03:05;100120.09;;;11.05;58.54
80627;BME280;69982;51.758;5.784;2024-03-02T10:05:35;100117.36;;;11.10;58.24
80627;BME280;69982;51.758;5.784;2024-03-02T10:08:09;100112.69;;;11.14;57.99
80627;BME280;69982;51.758;5.784;2024-03-02T10:10:39;100117.71;;;11.17;58.04
80627;BME280;69982;51.758;5.784;2024-03-02T10:13:19;100114.48;;;11.22;58.10
80627;BME280;69982;51.758;5.784;2024-03-02T10:16:32;100112.67;;;11.33;58.50
80627;BME280;69982;51.758;5.784;2024-03-02T10:19:21;100110.15;;;11.47;58.63
80627;BME280;69982;51.758;5.784;2024-03-02T10:22:00;100120.52;;;11.60;56.80
80627;BME280;69982;51.758;5.784;2024-03-02T10:25:01;100112.63;;;11.65;56.08
80627;BME280;69982;51.758;5.784;2024-03-02T10:27:41;100112.58;;;11.72;56.01
80627;BME280;69982;51.758;5.784;2024-03-02T10:30:13;100113.66;;;11.77;55.49
80627;BME280;69982;51.758;5.784;2024-03-02T10:32:49;100111.86;;;11.83;55.26
80627;BME280;69982;51.758;5.784;2024-03-02T10:35:34;100105.90;;;11.93;55.84
80627;BME280;69982;51.758;5.784;2024-03-02T10:38:18;100091.52;;;12.02;54.47
80627;BME280;69982;51.758;5.784;2024-03-02T10:40:50;100095.90;;;12.09;54.41
80627;BME280;69982;51.758;5.784;2024-03-02T10:43:20;100083.85;;;12.14;53.66
80627;BME280;69982;51.758;5.784;2024-03-02T10:45:59;100075.46;;;12.21;54.30
80627;BME280;69982;51.758;5.784;2024-03-02T10:48:36;100079.23;;;12.31;54.90
80627;BME280;69982;51.758;5.784;2024-03-02T10:51:07;100084.23;;;12.43;55.17
80627;BME280;69982;51.758;5.784;2024-03-02T10:53:39;100086.11;;;12.57;54.57
80627;BME280;69982;51.758;5.784;2024-03-02T10:56:15;100087.59;;;12.68;53.76
80627;BME280;69982;51.758;5.784;2024-03-02T10:59:33;100080.33;;;12.79;53.39
80627;BME280;69982;51.758;5.784;2024-03-02T11:02:06;100079.76;;;12.87;52.73
80627;BME280;69982;51.758;5.784;2024-03-02T11:04:46;100082.91;;;12.95;53.40
80627;BME280;69982;51.758;5.784;2024-03-02T11:07:20;100073.79;;;13.04;53.30
80627;BME280;69982;51.758;5.784;2024-03-02T11:10:01;100070.66;;;13.14;53.61
80627;BME280;69982;51.758;5.784;2024-03-02T11:12:46;100074.10;;;13.25;52.79
80627;BME280;69982;51.758;5.784;2024-03-02T11:15:20;100077.38;;;13.35;53.39
80627;BME280;69982;51.758;5.784;2024-03-02T11:18:19;100069.21;;;13.47;52.33
80627;BME280;69982;51.758;5.784;2024-03-02T11:21:12;100068.13;;;13.62;52.77
80627;BME280;69982;51.758;5.784;2024-03-02T11:23:48;100068.61;;;13.78;52.57
80627;BME280;69982;51.758;5.784;2024-03-02T11:26:41;100068.69;;;13.93;51.52
80627;BME280;69982;51.758;5.784;2024-03-02T11:32:31;100069.27;;;14.19;51.19
80627;BME280;69982;51.758;5.784;2024-03-02T11:35:19;100071.16;;;14.26;49.89
80627;BME280;69982;51.758;5.784;2024-03-02T11:37:59;100073.32;;;14.34;48.90
80627;BME280;69982;51.758;5.784;2024-03-02T11:40:32;100062.19;;;14.39;48.26
80627;BME280;69982;51.758;5.784;2024-03-02T11:43:03;100061.42;;;14.46;49.14
80627;BME280;69982;51.758;5.784;2024-03-02T11:45:33;100063.23;;;14.55;48.81
80627;BME280;69982;51.758;5.784;2024-03-02T11:48:16;100061.84;;;14.63;47.09
80627;BME280;69982;51.758;5.784;2024-03-02T11:51:15;100064.32;;;14.65;47.36
80627;BME280;69982;51.758;5.784;2024-03-02T11:53:45;100065.08;;;14.66;46.45
80627;BME280;69982;51.758;5.784;2024-03-02T11:56:31;100054.36;;;14.59;46.20
80627;BME280;69982;51.758;5.784;2024-03-02T11:59:07;100047.26;;;14.62;46.84
80627;BME280;69982;51.758;5.784;2024-03-02T12:01:59;100033.38;;;14.66;46.53
80627;BME280;69982;51.758;5.784;2024-03-02T12:04:36;100045.43;;;14.71;46.99
80627;BME280;69982;51.758;5.784;2024-03-02T12:07:20;100044.38;;;14.73;46.94
80627;BME280;69982;51.758;5.784;2024-03-02T12:09:59;100044.63;;;14.75;46.54
80627;BME280;69982;51.758;5.784;2024-03-02T12:12:38;100041.34;;;14.79;47.07
80627;BME280;69982;51.758;5.784;2024-03-02T12:15:23;100035.83;;;14.83;46.54
80627;BME280;69982;51.758;5.784;2024-03-02T12:18:01;100029.93;;;14.89;46.82
80627;BME280;69982;51.758;5.784;2024-03-02T12:20:37;100034.16;;;14.96;46.58
80627;BME280;69982;51.758;5.784;2024-03-02T12:23:31;100032.27;;;15.01;46.92
80627;BME280;69982;51.758;5.784;2024-03-02T12:26:39;100025.98;;;15.07;47.06
80627;BME280;69982;51.758;5.784;2024-03-02T12:29:20;100030.23;;;15.17;47.06
80627;BME280;69982;51.758;5.784;2024-03-02T12:35:40;100022.74;;;15.26;46.68
80627;BME280;69982;51.758;5.784;2024-03-02T12:39:14;100013.80;;;15.32;46.78
80627;BME280;69982;51.758;5.784;2024-03-02T12:41:50;100009.84;;;15.43;46.97
80627;BME280;69982;51.758;5.784;2024-03-02T12:44:28;100005.83;;;15.56;46.80
80627;BME280;69982;51.758;5.784;2024-03-02T12:47:02;100010.09;;;15.69;47.06
80627;BME280;69982;51.758;5.784;2024-03-02T12:49:35;100003.98;;;15.82;47.02
80627;BME280;69982;51.758;5.784;2024-03-02T12:52:05;99998.98;;;15.91;46.13
80627;BME280;69982;51.758;5.784;2024-03-02T12:54:33;99993.02;;;16.01;45.66
80627;BME280;69982;51.758;5.784;2024-03-02T12:57:02;99984.95;;;16.08;44.45
80627;BME280;69982;51.758;5.784;2024-03-02T12:59:28;99976.08;;;16.13;44.97
80627;BME280;69982;51.758;5.784;2024-03-02T13:01:56;99970.71;;;16.19;44.22
80627;BME280;69982;51.758;5.784;2024-03-02T13:04:33;99971.34;;;16.26;44.35
80627;BME280;69982;51.758;5.784;2024-03-02T13:07:12;99974.20;;;16.34;43.99
80627;BME280;69982;51.758;5.784;2024-03-02T13:09:41;99970.84;;;16.42;43.66
80627;BME280;69982;51.758;5.784;2024-03-02T13:12:08;99970.99;;;16.52;44.24
80627;BME280;69982;51.758;5.784;2024-03-02T13:14:35;99971.30;;;16.65;44.23
80627;BME280;69982;51.758;5.784;2024-03-02T13:17:03;99969.88;;;16.77;44.08
80627;BME280;69982;51.758;5.784;2024-03-02T13:22:53;99965.70;;;16.99;42.14
80627;BME280;69982;51.758;5.784;2024-03-02T13:25:25;99957.67;;;17.04;42.66
80627;BME280;69982;51.758;5.784;2024-03-02T13:27:56;99959.27;;;17.19;42.72
80627;BME280;69982;51.758;5.784;2024-03-02T13:30:45;99960.08;;;17.31;42.83
80627;BME280;69982;51.758;5.784;2024-03-02T13:33:35;99962.95;;;17.42;42.42
80627;BME280;69982;51.758;5.784;2024-03-02T13:36:36;99961.58;;;17.48;40.52
80627;BME280;69982;51.758;5.784;2024-03-02T13:39:35;99954.73;;;17.48;40.25
80627;BME280;69982;51.758;5.784;2024-03-02T13:42:31;99942.05;;;17.59;41.18
80627;BME280;69982;51.758;5.784;2024-03-02T13:49:50;99941.92;;;17.58;39.61
80627;BME280;69982;51.758;5.784;2024-03-02T13:52:58;99933.43;;;17.46;40.30
80627;BME280;69982;51.758;5.784;2024-03-02T13:55:25;99929.86;;;17.36;40.18
80627;BME280;69982;51.758;5.784;2024-03-02T13:57:56;99932.46;;;17.31;40.62
80627;BME280;69982;51.758;5.784;2024-03-02T14:00:28;99936.66;;;17.26;40.15
80627;BME280;69982;51.758;5.784;2024-03-02T14:02:55;99935.14;;;17.21;40.45
80627;BME280;69982;51.758;5.784;2024-03-02T14:05:23;99929.80;;;17.25;41.56
80627;BME280;69982;51.758;5.784;2024-03-02T14:07:50;99922.94;;;17.30;41.12
80627;BME280;69982;51.758;5.784;2024-03-02T14:10:16;99919.09;;;17.36;40.10
80627;BME280;69982;51.758;5.784;2024-03-02T14:12:48;99912.84;;;17.40;39.69
80627;BME280;69982;51.758;5.784;2024-03-02T14:15:15;99910.75;;;17.44;40.62
80627;BME280;69982;51.758;5.784;2024-03-02T14:17:43;99911.30;;;17.53;40.66
80627;BME280;69982;51.758;5.784;2024-03-02T14:20:11;99900.90;;;17.62;39.78
80627;BME280;69982;51.758;5.784;2024-03-02T14:22:39;99905.63;;;17.69;40.03
80627;BME280;69982;51.758;5.784;2024-03-02T14:25:06;99904.33;;;17.76;40.11
80627;BME280;69982;51.758;5.784;2024-03-02T14:27:34;99902.30;;;17.81;40.13
80627;BME280;69982;51.758;5.784;2024-03-02T14:30:04;99899.98;;;17.87;39.96
80627;BME280;69982;51.758;5.784;2024-03-02T14:32:34;99898.63;;;17.81;39.24
80627;BME280;69982;51.758;5.784;2024-03-02T14:35:08;99895.83;;;17.72;38.85
80627;BME280;69982;51.758;5.784;2024-03-02T14:37:38;99898.70;;;17.69;39.86
80627;BME280;69982;51.758;5.784;2024-03-02T14:40:05;99894.48;;;17.72;39.60
80627;BME280;69982;51.758;5.784;2024-03-02T14:42:36;99886.16;;;17.74;39.20
80627;BME280;69982;51.758;5.784;2024-03-02T14:45:05;99880.86;;;17.78;39.80
80627;BME280;69982;51.758;5.784;2024-03-02T14:47:53;99885.12;;;17.84;39.47
80627;BME280;69982;51.758;5.784;2024-03-02T14:50:21;99880.09;;;17.89;39.90
80627;BME280;69982;51.758;5.784;2024-03-02T14:52:48;99881.77;;;17.92;39.61
80627;BME280;69982;51.758;5.784;2024-03-02T14:55:17;99876.22;;;17.90;39.75
80627;BME280;69982;51.758;5.784;2024-03-02T14:57:49;99876.98;;;17.83;39.28
80627;BME280;69982;51.758;5.784;2024-03-02T15:00:19;99876.56;;;17.75;40.23
80627;BME280;69982;51.758;5.784;2024-03-02T15:02:46;99876.70;;;17.68;40.14
80627;BME280;69982;51.758;5.784;2024-03-02T15:05:14;99877.64;;;17.61;40.05
80627;BME280;69982;51.758;5.784;2024-03-02T15:07:44;99880.36;;;17.49;40.18
80627;BME280;69982;51.758;5.784;2024-03-02T15:10:16;99881.97;;;17.43;40.50
80627;BME280;69982;51.758;5.784;2024-03-02T15:12:44;99877.80;;;17.37;40.58
80627;BME280;69982;51.758;5.784;2024-03-02T15:15:22;99874.07;;;17.37;41.44
80627;BME280;69982;51.758;5.784;2024-03-02T15:18:00;99875.14;;;17.34;41.23
80627;BME280;69982;51.758;5.784;2024-03-02T15:20:30;99877.37;;;17.23;41.15
80627;BME280;69982;51.758;5.784;2024-03-02T15:22:57;99878.27;;;17.16;41.74
80627;BME280;69982;51.758;5.784;2024-03-02T15:25:29;99878.54;;;17.12;42.10
80627;BME280;69982;51.758;5.784;2024-03-02T15:27:58;99872.04;;;17.03;42.27
80627;BME280;69982;51.758;5.784;2024-03-02T15:30:31;99866.03;;;16.95;42.80
80627;BME280;69982;51.758;5.784;2024-03-02T15:33:00;99868.77;;;16.85;43.11
80627;BME280;69982;51.758;5.784;2024-03-02T15:35:31;99872.23;;;16.73;43.56
80627;BME280;69982;51.758;5.784;2024-03-02T15:38:00;99869.49;;;16.68;44.30
80627;BME280;69982;51.758;5.784;2024-03-02T15:40:30;99872.44;;;16.67;44.91
80627;BME280;69982;51.758;5.784;2024-03-02T15:42:58;99869.50;;;16.70;44.53
80627;BME280;69982;51.758;5.784;2024-03-02T15:45:25;99866.67;;;16.67;44.72
80627;BME280;69982;51.758;5.784;2024-03-02T15:48:01;99859.73;;;16.63;45.06
80627;BME280;69982;51.758;5.784;2024-03-02T15:50:28;99860.41;;;16.56;45.19
80627;BME280;69982;51.758;5.784;2024-03-02T15:52:55;99859.67;;;16.54;45.51
80627;BME280;69982;51.758;5.784;2024-03-02T15:55:30;99865.61;;;16.51;45.53
80627;BME280;69982;51.758;5.784;2024-03-02T15:57:57;99867.08;;;16.45;45.57
80627;BME280;69982;51.758;5.784;2024-03-02T16:00:25;99862.02;;;16.37;45.71
80627;BME280;69982;51.758;5.784;2024-03-02T16:02:55;99866.20;;;16.28;45.25
80627;BME280;69982;51.758;5.784;2024-03-02T16:05:23;99860.52;;;16.17;45.47
80627;BME280;69982;51.758;5.784;2024-03-02T16:07:50;99862.52;;;16.12;45.98
80627;BME280;69982;51.758;5.784;2024-03-02T16:10:17;99863.48;;;16.08;46.08
80627;BME280;69982;51.758;5.784;2024-03-02T16:12:43;99852.21;;;16.03;46.26
80627;BME280;69982;51.758;5.784;2024-03-02T16:15:12;99855.43;;;16.01;46.71
80627;BME280;69982;51.758;5.784;2024-03-02T16:17:40;99854.14;;;16.00;46.79
80627;BME280;69982;51.758;5.784;2024-03-02T16:20:13;99852.89;;;15.99;46.67
80627;BME280;69982;51.758;5.784;2024-03-02T16:22:40;99849.92;;;15.95;46.92
80627;BME280;69982;51.758;5.784;2024-03-02T16:25:10;99844.38;;;15.90;46.84
80627;BME280;69982;51.758;5.784;2024-03-02T16:27:48;99846.45;;;15.79;46.85
80627;BME280;69982;51.758;5.784;2024-03-02T16:30:16;99847.96;;;15.69;47.23
80627;BME280;69982;51.758;5.784;2024-03-02T16:32:46;99847.79;;;15.60;47.56
80627;BME280;69982;51.758;5.784;2024-03-02T16:35:13;99848.97;;;15.50;47.72
80627;BME280;69982;51.758;5.784;2024-03-02T16:37:42;99851.00;;;15.36;48.14
80627;BME280;69982;51.758;5.784;2024-03-02T16:40:11;99854.11;;;15.24;48.51
80627;BME280;69982;51.758;5.784;2024-03-02T16:42:44;99851.52;;;15.14;48.87
80627;BME280;69982;51.758;5.784;2024-03-02T16:45:11;99850.24;;;15.03;49.39
80627;BME280;69982;51.758;5.784;2024-03-02T16:47:39;99852.21;;;14.89;49.88
80627;BME280;69982;51.758;5.784;2024-03-02T16:50:06;99849.71;;;14.75;50.57
80627;BME280;69982;51.758;5.784;2024-03-02T16:52:35;99849.32;;;14.61;51.03
80627;BME280;69982;51.758;5.784;2024-03-02T16:55:05;99851.92;;;14.49;51.31
80627;BME280;69982;51.758;5.784;2024-03-02T16:57:33;99855.59;;;14.40;51.77
80627;BME280;69982;51.758;5.784;2024-03-02T17:00:00;99853.42;;;14.31;52.03
80627;BME280;69982;51.758;5.784;2024-03-02T17:02:31;99857.19;;;14.20;52.05
80627;BME280;69982;51.758;5.784;2024-03-02T17:04:58;99855.39;;;14.11;52.54
80627;BME280;69982;51.758;5.784;2024-03-02T17:07:25;99851.55;;;14.02;52.83
80627;BME280;69982;51.758;5.784;2024-03-02T17:09:58;99851.86;;;13.92;53.00
80627;BME280;69982;51.758;5.784;2024-03-02T17:12:31;99851.91;;;13.84;53.32
80627;BME280;69982;51.758;5.784;2024-03-02T17:15:01;99850.48;;;13.76;53.44
80627;BME280;69982;51.758;5.784;2024-03-02T17:17:31;99854.15;;;13.67;53.70
80627;BME280;69982;51.758;5.784;2024-03-02T17:20:01;99859.14;;;13.59;54.05
80627;BME280;69982;51.758;5.784;2024-03-02T17:22:31;99863.12;;;13.54;54.36
80627;BME280;69982;51.758;5.784;2024-03-02T17:24:58;99863.96;;;13.50;54.36
80627;BME280;69982;51.758;5.784;2024-03-02T17:27:31;99867.14;;;13.46;54.47
80627;BME280;69982;51.758;5.784;2024-03-02T17:30:00;99871.00;;;13.42;54.63
80627;BME280;69982;51.758;5.784;2024-03-02T17:32:27;99870.95;;;13.38;54.61
80627;BME280;69982;51.758;5.784;2024-03-02T17:34:55;99870.79;;;13.35;54.90
80627;BME280;69982;51.758;5.784;2024-03-02T17:37:22;99869.90;;;13.33;55.19
80627;BME280;69982;51.758;5.784;2024-03-02T17:39:50;99872.33;;;13.28;55.34
80627;BME280;69982;51.758;5.784;2024-03-02T17:42:19;99874.15;;;13.22;55.16
80627;BME280;69982;51.758;5.784;2024-03-02T17:44:45;99875.11;;;13.18;55.39
80627;BME280;69982;51.758;5.784;2024-03-02T17:47:12;99877.52;;;13.17;55.55
80627;BME280;69982;51.758;5.784;2024-03-02T17:49:39;99879.52;;;13.15;55.53
80627;BME280;69982;51.758;5.784;2024-03-02T17:52:06;99880.94;;;13.13;55.60
80627;BME280;69982;51.758;5.784;2024-03-02T17:54:33;99884.92;;;13.12;55.72
80627;BME280;69982;51.758;5.784;2024-03-02T17:57:01;99883.74;;;13.09;55.74
80627;BME280;69982;51.758;5.784;2024-03-02T17:59:30;99886.29;;;13.07;55.82
80627;BME280;69982;51.758;5.784;2024-03-02T18:01:56;99889.67;;;13.05;55.90
80627;BME280;69982;51.758;5.784;2024-03-02T18:04:24;99885.27;;;13.02;55.97
80627;BME280;69982;51.758;5.784;2024-03-02T18:06:51;99890.88;;;13.00;55.77
80627;BME280;69982;51.758;5.784;2024-03-02T18:09:21;99886.64;;;12.97;55.59
80627;BME280;69982;51.758;5.784;2024-03-02T18:11:48;99889.53;;;12.96;55.71
80627;BME280;69982;51.758;5.784;2024-03-02T18:14:15;99894.39;;;12.95;55.69
80627;BME280;69982;51.758;5.784;2024-03-02T18:16:43;99890.36;;;12.94;55.39
80627;BME280;69982;51.758;5.784;2024-03-02T18:19:10;99890.59;;;12.90;55.51
80627;BME280;69982;51.758;5.784;2024-03-02T18:21:37;99889.09;;;12.89;55.61
80627;BME280;69982;51.758;5.784;2024-03-02T18:24:04;99888.08;;;12.89;55.53
80627;BME280;69982;51.758;5.784;2024-03-02T18:26:31;99884.27;;;12.88;55.36
80627;BME280;69982;51.758;5.784;2024-03-02T18:29:00;99885.85;;;12.85;55.27
80627;BME280;69982;51.758;5.784;2024-03-02T18:31:27;99883.53;;;12.84;55.22
80627;BME280;69982;51.758;5.784;2024-03-02T18:33:56;99881.55;;;12.82;55.16
80627;BME280;69982;51.758;5.784;2024-03-02T18:36:26;99879.38;;;12.81;55.16
80627;BME280;69982;51.758;5.784;2024-03-02T18:38:52;99880.84;;;12.80;55.30
80627;BME280;69982;51.758;5.784;2024-03-02T18:41:19;99878.81;;;12.77;55.40
80627;BME280;69982;51.758;5.784;2024-03-02T18:43:46;99874.79;;;12.76;55.31
80627;BME280;69982;51.758;5.784;2024-03-02T18:46:14;99880.06;;;12.74;55.35
80627;BME280;69982;51.758;5.784;2024-03-02T18:48:40;99876.19;;;12.72;55.40
80627;BME280;69982;51.758;5.784;2024-03-02T18:51:08;99879.28;;;12.69;55.46
80627;BME280;69982;51.758;5.784;2024-03-02T18:53:36;99878.85;;;12.67;55.37
80627;BME280;69982;51.758;5.784;2024-03-02T18:56:03;99877.77;;;12.66;55.54
80627;BME280;69982;51.758;5.784;2024-03-02T18:58:30;99872.05;;;12.65;55.74
80627;BME280;69982;51.758;5.784;2024-03-02T19:00:58;99878.50;;;12.64;55.72
80627;BME280;69982;51.758;5.784;2024-03-02T19:03:25;99878.47;;;12.63;55.80
80627;BME280;69982;51.758;5.784;2024-03-02T19:05:51;99876.61;;;12.62;55.97
80627;BME280;69982;51.758;5.784;2024-03-02T19:08:18;99877.37;;;12.61;55.97
80627;BME280;69982;51.758;5.784;2024-03-02T19:10:46;99870.45;;;12.59;56.02
80627;BME280;69982;51.758;5.784;2024-03-02T19:13:15;99871.27;;;12.59;56.07
80627;BME280;69982;51.758;5.784;2024-03-02T19:15:42;99870.48;;;12.59;56.22
80627;BME280;69982;51.758;5.784;2024-03-02T19:18:09;99870.27;;;12.59;56.26
80627;BME280;69982;51.758;5.784;2024-03-02T19:20:36;99868.14;;;12.59;56.34
80627;BME280;69982;51.758;5.784;2024-03-02T19:23:02;99865.88;;;12.60;56.30
80627;BME280;69982;51.758;5.784;2024-03-02T19:25:33;99863.64;;;12.58;56.14
80627;BME280;69982;51.758;5.784;2024-03-02T19:28:01;99861.77;;;12.59;56.27
80627;BME280;69982;51.758;5.784;2024-03-02T19:30:35;99859.39;;;12.59;56.24
80627;BME280;69982;51.758;5.784;2024-03-02T19:33:03;99858.70;;;12.59;56.26